首页
METAR-TAF:

METAR-TAF

机场 :

上海虹桥国际机场

上海 / 虹桥, 中华人民共和国

纬度: 31-10N, 经度: 121-26E, 海拔: 7米

当前天气观测

该预报发布于33分钟前的20:30 UTC
风速4节,风向西南,在南转西南西之间变化
温度 23°C
湿度 94%
气压 1005 hPa
能见度10公里或以上
1500米以下无云,无积雨云

METAR: ZSSS 232030Z 23002MPS 200V280 CAVOK 23/22 Q1005 NOSIG

时间: 05:03 (21:03 UTC)

预报

该预报发布于5小时和57分钟前的15:06 UTC
预报有效从23日的 18点(UTC)到 24日的 24点(UTC)
风速8节,风向南转西南
能見度: 6000
多云层高于2000英尺

TAF: ZSSS 231506Z 2318/2424 21004MPS 6000 BKN020 TX30/2406Z TN20/2321Z TN21/2421Z

超过4000个机场的气象观测和天气预报(METAR&TAF报告)。

可查询的气象台以黄色和红色小点在地图上表示。

将鼠标移到小点上方,可查看气象台名称。

然后点击查看天气观测和预报。

如需切换地图:点击带黑十字的绿色按钮放大地图;点击带横线的绿色按钮缩小地图;或者点击绿色箭头查看邻近地区的地图。


METAR-TAF: